Time;durP1;ratioP1;P1;durP2;ratioP2;P2;SDS_P1;SDS_P2;PMS_P1;PMS_P2;Temp;Humidity;BMP_temperature;BMP_pressure;BME280_temperature;BME280_humidity;BME280_pressure;Samples;Min_cycle;Max_cycle;Signal;HPM_P1;HPM_P2
2021/04/03 00:00:57;;;;;;;1999.90;999.90;;;;;;;8.62;68.19;97908.50;5021501;28;20168;-65
2021/04/03 00:03:25;;;;;;;1999.90;999.90;;;;;;;8.62;68.41;97902.97;5016615;28;20480;-66
2021/04/03 00:05:52;;;;;;;1999.90;999.90;;;;;;;8.74;67.69;97905.88;5024382;28;20089;-64
2021/04/03 00:08:20;;;;;;;1999.90;999.90;;;;;;;8.70;68.00;97901.34;5018812;28;20100;-64
2021/04/03 00:11:01;;;;;;;1999.90;999.90;;;;;;;8.59;68.39;97898.91;5023962;28;20049;-66
2021/04/03 00:13:34;;;;;;;1999.90;999.90;;;;;;;8.72;67.86;97897.13;5024338;28;20052;-65
2021/04/03 00:16:02;;;;;;;1999.90;999.90;;;;;;;8.26;69.38;97901.25;5021547;28;20164;-66
2021/04/03 00:18:28;;;;;;;1999.90;999.90;;;;;;;7.79;70.86;97910.06;5021150;28;20096;-66
2021/04/03 00:20:54;;;;;;;1999.90;999.90;;;;;;;7.82;71.23;97906.66;5020859;28;20049;-66
2021/04/03 00:23:21;;;;;;;1999.90;999.90;;;;;;;7.86;71.45;97901.31;5024641;28;20053;-66
2021/04/03 00:25:49;;;;;;;1999.90;999.90;;;;;;;7.76;71.57;97903.22;5021700;28;20104;-66
2021/04/03 00:28:16;;;;;;;1999.90;999.90;;;;;;;7.75;71.63;97901.59;5017936;28;20383;-66
2021/04/03 00:30:42;;;;;;;1999.90;999.90;;;;;;;7.95;71.51;97902.19;5018204;28;20107;-65
2021/04/03 00:33:09;;;;;;;1999.90;999.90;;;;;;;8.15;70.63;97903.50;5018246;28;20485;-66
2021/04/03 00:35:37;;;;;;;1999.90;999.90;;;;;;;8.21;70.24;97890.41;5021462;28;20481;-66
2021/04/03 00:38:06;;;;;;;1999.90;999.90;;;;;;;8.12;70.51;97893.16;5018392;28;20046;-66
2021/04/03 00:40:40;;;;;;;1999.90;999.90;;;;;;;8.20;70.39;97891.53;5023072;28;20174;-65
2021/04/03 00:43:18;;;;;;;1999.90;999.90;;;;;;;8.19;69.95;97893.50;5018039;28;20497;-66
2021/04/03 00:45:45;;;;;;;1999.90;999.90;;;;;;;8.04;70.20;97897.50;5025564;28;20080;-66
2021/04/03 00:48:12;;;;;;;1999.90;999.90;;;;;;;7.85;70.93;97902.47;5019422;28;20050;-66
2021/04/03 00:50:41;;;;;;;1999.90;999.90;;;;;;;7.57;71.54;97908.19;5020138;28;20045;-66
2021/04/03 00:53:17;;;;;;;1999.90;999.90;;;;;;;7.44;72.45;97903.56;5016871;28;20073;-65
2021/04/03 00:55:44;;;;;;;1999.90;999.90;;;;;;;7.38;72.50;97898.22;5021365;28;20142;-66
2021/04/03 00:58:11;;;;;;;1999.90;999.90;;;;;;;7.30;72.84;97901.72;5021251;28;20784;-65
2021/04/03 01:00:38;;;;;;;1999.90;999.90;;;;;;;7.01;74.00;97899.44;5022916;28;20057;-66
2021/04/03 01:03:06;;;;;;;1999.90;999.90;;;;;;;6.59;75.38;97899.59;5019733;28;20456;-65
2021/04/03 01:05:33;;;;;;;1999.90;999.90;;;;;;;6.57;75.60;97901.88;5022912;28;20092;-65
2021/04/03 01:08:00;;;;;;;1999.90;999.90;;;;;;;6.60;75.80;97901.25;5020153;28;20041;-65
2021/04/03 01:10:33;;;;;;;1999.90;999.90;;;;;;;6.92;74.48;97898.56;5017503;28;20463;-65
2021/04/03 01:13:37;;;;;;;1999.90;999.90;;;;;;;6.94;74.17;97894.38;5021050;28;20449;-65
2021/04/03 01:16:11;;;;;;;1999.90;999.90;;;;;;;6.76;74.89;97898.13;5023446;28;20049;-65
2021/04/03 01:19:07;;;;;;;1999.90;999.90;;;;;;;7.07;73.51;97897.38;5016644;28;20065;-65
2021/04/03 01:22:12;;;;;;;1999.90;999.90;;;;;;;6.85;73.57;97897.06;5023889;28;20046;-65
2021/04/03 01:25:00;;;;;;;1999.90;999.90;;;;;;;7.11;73.10;97893.69;5020338;28;20049;-65
2021/04/03 01:27:27;;;;;;;1999.90;999.90;;;;;;;7.18;72.35;97890.50;5021117;28;20041;-65
2021/04/03 01:30:18;;;;;;;1999.90;999.90;;;;;;;7.10;72.66;97892.06;5021955;28;20099;-65
2021/04/03 01:33:21;;;;;;;1999.90;999.90;;;;;;;7.25;72.22;97890.03;5015964;28;20049;-65
2021/04/03 01:36:03;;;;;;;1999.90;999.90;;;;;;;7.15;72.39;97891.13;5038239;28;20087;-65
2021/04/03 01:38:42;;;;;;;1999.90;999.90;;;;;;;6.90;73.49;97893.38;5021063;28;20452;-65
2021/04/03 01:41:09;;;;;;;1999.90;999.90;;;;;;;6.84;73.48;97886.41;5022744;28;20045;-65
2021/04/03 01:43:44;;;;;;;1999.90;999.90;;;;;;;6.93;73.57;97876.25;5018287;28;20104;-65
2021/04/03 01:46:12;;;;;;;1999.90;999.90;;;;;;;6.94;73.24;97880.66;5021051;28;20058;-65
2021/04/03 01:48:41;;;;;;;1999.90;999.90;;;;;;;6.94;73.21;97883.41;5020860;28;20458;-65
2021/04/03 01:51:12;;;;;;;1999.90;999.90;;;;;;;6.89;73.76;97878.00;5018612;28;20115;-65
2021/04/03 01:53:40;;;;;;;1999.90;999.90;;;;;;;7.08;73.06;97877.81;5023093;28;20451;-65
2021/04/03 01:56:08;;;;;;;1999.90;999.90;;;;;;;6.90;73.41;97882.38;5020986;28;20461;-65
2021/04/03 01:58:35;;;;;;;1999.90;999.90;;;;;;;6.86;73.62;97881.38;5020496;28;20443;-65
2021/04/03 02:01:02;;;;;;;1999.90;999.90;;;;;;;6.52;74.81;97878.06;5019645;28;20448;-65
2021/04/03 02:03:32;;;;;;;1999.90;999.90;;;;;;;6.28;76.21;97889.34;5021028;28;20045;-65
2021/04/03 02:06:03;;;;;;;1999.90;999.90;;;;;;;6.36;76.29;97887.78;5021760;28;20052;-65
2021/04/03 02:08:29;;;;;;;1999.90;999.90;;;;;;;6.03;77.74;97890.72;5017958;28;20093;-65
2021/04/03 02:11:07;;;;;;;1999.90;999.90;;;;;;;5.42;80.18;97887.22;5017215;28;20046;-65
2021/04/03 02:13:35;;;;;;;1999.90;999.90;;;;;;;5.64;80.35;97892.81;5017772;28;20046;-65
2021/04/03 02:16:04;;;;;;;1999.90;999.90;;;;;;;5.87;79.35;97889.38;5022116;28;20054;-65
2021/04/03 02:18:32;;;;;;;1999.90;999.90;;;;;;;5.39;81.15;97896.03;5017596;28;20064;-65
2021/04/03 02:21:05;;;;;;;1999.90;999.90;;;;;;;5.33;81.90;97892.59;5016494;28;20049;-65
2021/04/03 02:23:33;;;;;;;1999.90;999.90;;;;;;;5.15;83.12;97901.69;5033396;28;20128;-65
2021/04/03 02:26:01;;;;;;;1999.90;999.90;;;;;;;5.04;84.97;97899.13;5017653;28;20551;-65
2021/04/03 02:28:27;;;;;;;1999.90;999.90;;;;;;;5.15;84.77;97897.03;5023626;28;20546;-65
2021/04/03 02:30:53;;;;;;;1999.90;999.90;;;;;;;5.30;84.27;97898.69;5017034;28;20045;-65
2021/04/03 02:33:20;;;;;;;1999.90;999.90;;;;;;;5.16;85.20;97895.91;5021015;28;20524;-64
2021/04/03 02:35:47;;;;;;;1999.90;999.90;;;;;;;5.39;84.44;97896.88;5015856;28;20068;-65
2021/04/03 02:38:14;;;;;;;1999.90;999.90;;;;;;;5.31;85.75;97894.00;5024387;28;20516;-65
2021/04/03 02:40:41;;;;;;;1999.90;999.90;;;;;;;5.36;85.35;97891.16;5019881;28;20049;-65
2021/04/03 02:43:13;;;;;;;1999.90;999.90;;;;;;;5.45;84.80;97895.66;5023149;28;20061;-65
2021/04/03 02:45:49;;;;;;;1999.90;999.90;;;;;;;5.26;85.94;97895.72;5020997;28;20107;-65
2021/04/03 02:48:19;;;;;;;1999.90;999.90;;;;;;;5.20;86.03;97894.19;5024584;28;20068;-65
2021/04/03 02:50:51;;;;;;;1999.90;999.90;;;;;;;5.29;86.05;97891.56;5024004;28;20422;-65
2021/04/03 02:53:27;;;;;;;1999.90;999.90;;;;;;;5.53;84.99;97885.91;5023303;28;20105;-66
2021/04/03 02:55:55;;;;;;;1999.90;999.90;;;;;;;5.44;84.85;97884.97;5023421;28;20045;-65
2021/04/03 02:58:23;;;;;;;1999.90;999.90;;;;;;;5.50;84.78;97891.19;5022027;28;20095;-64
2021/04/03 03:00:55;;;;;;;1999.90;999.90;;;;;;;5.53;84.31;97885.91;5024427;28;20096;-64
2021/04/03 03:03:22;;;;;;;1999.90;999.90;;;;;;;5.28;85.70;97892.66;5022214;28;20080;-65
2021/04/03 03:05:53;;;;;;;1999.90;999.90;;;;;;;5.32;84.25;97887.41;5023021;28;20049;-65
2021/04/03 03:08:20;;;;;;;1999.90;999.90;;;;;;;5.25;85.57;97883.13;5025294;28;20037;-66
2021/04/03 03:10:49;;;;;;;1999.90;999.90;;;;;;;5.57;84.24;97878.69;5022346;28;20388;-66
2021/04/03 03:13:18;;;;;;;1999.90;999.90;;;;;;;5.69;83.51;97882.88;5024616;28;20050;-66
2021/04/03 03:15:44;;;;;;;1999.90;999.90;;;;;;;5.93;82.50;97883.44;5022814;28;20054;-66
2021/04/03 03:18:11;;;;;;;1999.90;999.90;;;;;;;6.25;80.98;97881.72;5023819;28;20057;-66
2021/04/03 03:20:38;;;;;;;1999.90;999.90;;;;;;;6.22;80.97;97885.06;5024078;28;20095;-64
2021/04/03 03:23:04;;;;;;;1999.90;999.90;;;;;;;5.84;81.88;97887.25;5019901;28;20053;-63
2021/04/03 03:25:30;;;;;;;1999.90;999.90;;;;;;;5.78;83.10;97881.03;5021382;28;20056;-64
2021/04/03 03:27:59;;;;;;;1999.90;999.90;;;;;;;5.69;83.44;97874.66;5019858;28;20144;-64
2021/04/03 03:30:26;;;;;;;1999.90;999.90;;;;;;;5.61;83.94;97871.50;5023590;28;20049;-64
2021/04/03 03:32:53;;;;;;;1999.90;999.90;;;;;;;5.29;85.96;97873.19;5021357;28;22893;-64
2021/04/03 03:35:20;;;;;;;1999.90;999.90;;;;;;;5.09;86.90;97877.13;5026768;28;20459;-63
2021/04/03 03:37:47;;;;;;;1999.90;999.90;;;;;;;5.18;87.13;97873.66;5022866;28;20264;-64
2021/04/03 03:40:15;;;;;;;1999.90;999.90;;;;;;;5.25;87.13;97874.09;5025987;28;20049;-64
2021/04/03 03:42:42;;;;;;;1999.90;999.90;;;;;;;5.59;85.92;97873.72;5021848;28;20080;-64
2021/04/03 03:45:12;;;;;;;1999.90;999.90;;;;;;;5.23;87.49;97870.84;5021621;28;20049;-64
2021/04/03 03:47:39;;;;;;;1999.90;999.90;;;;;;;5.01;89.00;97874.25;5023247;28;20095;-64
2021/04/03 03:50:07;;;;;;;1999.90;999.90;;;;;;;5.05;88.73;97867.06;5024450;28;20447;-64
2021/04/03 03:52:33;;;;;;;1999.90;999.90;;;;;;;4.78;89.28;97854.91;5018829;28;20042;-66
2021/04/03 03:55:00;;;;;;;1999.90;999.90;;;;;;;4.79;90.10;97856.53;5020368;28;20048;-64
2021/04/03 03:57:26;;;;;;;1999.90;999.90;;;;;;;5.31;88.41;97866.59;5020952;28;20037;-65
2021/04/03 03:59:52;;;;;;;1999.90;999.90;;;;;;;4.92;89.42;97863.16;5021341;28;20061;-64
2021/04/03 04:02:18;;;;;;;1999.90;999.90;;;;;;;5.28;88.58;97863.34;5020614;28;20107;-65
2021/04/03 04:04:44;;;;;;;1999.90;999.90;;;;;;;5.49;88.11;97862.94;5022729;28;20451;-65
2021/04/03 04:07:10;;;;;;;1999.90;999.90;;;;;;;5.42;87.57;97852.38;5022163;28;20107;-65
2021/04/03 04:09:37;;;;;;;1999.90;999.90;;;;;;;4.70;90.05;97858.31;5019509;28;20071;-65
2021/04/03 04:12:06;;;;;;;1999.90;999.90;;;;;;;4.57;92.20;97862.63;5026589;28;20057;-65
2021/04/03 04:14:33;;;;;;;1999.90;999.90;;;;;;;4.90;90.53;97862.66;5020987;28;20054;-64
2021/04/03 04:17:00;;;;;;;1999.90;999.90;;;;;;;4.86;90.36;97856.94;5022429;28;20045;-65
2021/04/03 04:19:26;;;;;;;1999.90;999.90;;;;;;;4.66;91.69;97857.28;5020399;28;20131;-65
2021/04/03 04:21:54;;;;;;;1999.90;999.90;;;;;;;4.70;92.03;97863.78;5023793;28;20099;-64
2021/04/03 04:24:20;;;;;;;1999.90;999.90;;;;;;;4.96;91.18;97863.34;5019595;28;20115;-66
2021/04/03 04:26:46;;;;;;;1999.90;999.90;;;;;;;4.60;91.95;97859.31;5017966;28;20461;-66
2021/04/03 04:29:13;;;;;;;1999.90;999.90;;;;;;;4.27;93.90;97861.19;5019314;28;20112;-65
2021/04/03 04:31:40;;;;;;;1999.90;999.90;;;;;;;4.40;94.45;97869.44;5019653;28;20045;-65
2021/04/03 04:34:06;;;;;;;1999.90;999.90;;;;;;;4.55;94.22;97862.94;5022454;28;20041;-65
2021/04/03 04:36:32;;;;;;;1999.90;999.90;;;;;;;4.85;93.19;97871.75;5019643;28;20720;-65
2021/04/03 04:38:58;;;;;;;1999.90;999.90;;;;;;;4.96;93.25;97877.06;5022765;28;20053;-66
2021/04/03 04:41:24;;;;;;;1999.90;999.90;;;;;;;5.03;92.46;97880.22;5021162;28;20551;-66
2021/04/03 04:43:51;;;;;;;1999.90;999.90;;;;;;;4.37;92.79;97880.19;5021857;28;20084;-65
2021/04/03 04:46:17;;;;;;;1999.90;999.90;;;;;;;4.77;93.24;97880.66;5021571;28;20061;-66
2021/04/03 04:48:43;;;;;;;1999.90;999.90;;;;;;;4.66;93.28;97890.16;5019870;28;20057;-66
2021/04/03 04:51:10;;;;;;;1999.90;999.90;;;;;;;4.46;94.47;97892.09;5022068;28;20054;-65
2021/04/03 04:53:36;;;;;;;1999.90;999.90;;;;;;;5.10;92.18;97892.44;5021448;28;20606;-66
2021/04/03 04:56:02;;;;;;;1999.90;999.90;;;;;;;4.97;91.56;97900.63;5017547;28;20104;-66
2021/04/03 04:58:28;;;;;;;1999.90;999.90;;;;;;;4.98;90.68;97903.06;5023195;28;20045;-66
2021/04/03 05:00:54;;;;;;;1999.90;999.90;;;;;;;4.66;92.41;97901.09;5018238;28;20493;-66
2021/04/03 05:03:21;;;;;;;1999.90;999.90;;;;;;;4.44;92.70;97915.41;5015751;28;20054;-65
2021/04/03 05:05:47;;;;;;;1999.90;999.90;;;;;;;4.18;93.74;97915.75;5025528;28;20060;-65
2021/04/03 05:08:13;;;;;;;1999.90;999.90;;;;;;;4.39;94.21;97919.84;5020515;28;20052;-66
2021/04/03 05:10:39;;;;;;;1999.90;999.90;;;;;;;4.64;93.18;97923.31;5020946;28;20054;-66
2021/04/03 05:13:05;;;;;;;1999.90;999.90;;;;;;;4.68;93.86;97923.56;5017548;28;20456;-65
2021/04/03 05:15:31;;;;;;;1999.90;999.90;;;;;;;4.94;90.64;97921.19;5018670;28;20587;-66
2021/04/03 05:17:57;;;;;;;1999.90;999.90;;;;;;;4.47;92.61;97931.25;5021146;28;20487;-65
2021/04/03 05:20:24;;;;;;;1999.90;999.90;;;;;;;3.78;94.71;97932.41;5022462;28;20084;-66
2021/04/03 05:22:50;;;;;;;1999.90;999.90;;;;;;;4.03;95.04;97933.19;5021696;28;20053;-66
2021/04/03 05:25:16;;;;;;;1999.90;999.90;;;;;;;4.30;94.19;97931.75;5019829;28;20053;-66
2021/04/03 05:27:42;;;;;;;1999.90;999.90;;;;;;;4.18;93.79;97940.41;5020507;28;20052;-66
2021/04/03 05:30:09;;;;;;;1999.90;999.90;;;;;;;4.08;94.41;97946.81;5046723;28;20050;-65
2021/04/03 05:32:36;;;;;;;1999.90;999.90;;;;;;;3.95;95.11;97940.13;5024978;28;20481;-65
2021/04/03 05:35:03;;;;;;;1999.90;999.90;;;;;;;4.19;94.91;97944.78;5019287;28;20075;-65
2021/04/03 05:37:30;;;;;;;1999.90;999.90;;;;;;;4.22;94.62;97947.72;5023391;28;20046;-65
2021/04/03 05:39:56;;;;;;;1999.90;999.90;;;;;;;4.56;93.75;97952.19;5018035;28;20451;-65
2021/04/03 05:42:22;;;;;;;1999.90;999.90;;;;;;;4.88;91.82;97942.41;5018630;28;20118;-66
2021/04/03 05:44:49;;;;;;;1999.90;999.90;;;;;;;4.53;92.70;97961.00;5018489;28;20052;-65
2021/04/03 05:47:16;;;;;;;1999.90;999.90;;;;;;;4.06;94.62;97959.97;5025791;28;20053;-65
2021/04/03 05:49:43;;;;;;;1999.90;999.90;;;;;;;4.26;95.11;97953.44;5019020;28;20425;-65
2021/04/03 05:52:10;;;;;;;1999.90;999.90;;;;;;;4.69;94.08;97945.16;5017956;28;20049;-66
2021/04/03 05:54:38;;;;;;;1999.90;999.90;;;;;;;4.78;93.84;97953.53;5016300;28;20045;-66
2021/04/03 05:57:08;;;;;;;1999.90;999.90;;;;;;;4.70;92.85;97955.00;5018638;28;20509;-65
2021/04/03 05:59:35;;;;;;;1999.90;999.90;;;;;;;4.63;94.07;97956.47;5020345;28;20064;-65
2021/04/03 06:02:03;;;;;;;1999.90;999.90;;;;;;;4.03;95.17;97961.38;5019519;28;20567;-65
2021/04/03 06:04:30;;;;;;;1999.90;999.90;;;;;;;4.85;94.42;97959.41;5019717;28;20452;-65
2021/04/03 06:06:57;;;;;;;1999.90;999.90;;;;;;;5.19;93.42;97952.84;5021014;28;20485;-65
2021/04/03 06:09:23;;;;;;;1999.90;999.90;;;;;;;5.31;92.12;97960.59;5020920;28;20058;-65
2021/04/03 06:11:50;;;;;;;1999.90;999.90;;;;;;;5.06;91.53;97968.16;5019135;28;20497;-66
2021/04/03 06:14:17;;;;;;;1999.90;999.90;;;;;;;4.87;92.76;97965.44;5022513;28;20046;-65
2021/04/03 06:16:45;;;;;;;1999.90;999.90;;;;;;;4.79;93.31;97971.56;5022901;28;20050;-65
2021/04/03 06:19:17;;;;;;;1999.90;999.90;;;;;;;4.85;93.52;97967.66;5022403;28;20123;-65
2021/04/03 06:21:45;;;;;;;1999.90;999.90;;;;;;;4.65;94.08;97979.72;5023271;28;20056;-65
2021/04/03 06:24:25;;;;;;;1999.90;999.90;;;;;;;4.80;94.58;97977.88;5021687;28;20061;-65
2021/04/03 06:27:09;;;;;;;1999.90;999.90;;;;;;;4.78;95.18;97975.44;5021357;28;20108;-65
2021/04/03 06:29:35;;;;;;;1999.90;999.90;;;;;;;5.05;93.99;97977.50;5025388;28;20050;-65
2021/04/03 06:32:03;;;;;;;1999.90;999.90;;;;;;;5.01;93.89;97978.38;5019031;28;20057;-65
2021/04/03 06:34:35;;;;;;;1999.90;999.90;;;;;;;5.11;93.96;97978.22;5023888;28;20056;-65
2021/04/03 06:37:03;;;;;;;1999.90;999.90;;;;;;;5.41;91.98;97982.38;5020052;28;20520;-65
2021/04/03 06:39:29;;;;;;;1999.90;999.90;;;;;;;5.28;92.00;97988.63;5022741;28;20050;-65
2021/04/03 06:41:56;;;;;;;1999.90;999.90;;;;;;;5.52;91.83;97988.47;5022318;28;20444;-65
2021/04/03 06:44:23;;;;;;;1999.90;999.90;;;;;;;5.79;90.77;97987.75;5024541;28;20056;-65
2021/04/03 06:46:51;;;;;;;1999.90;999.90;;;;;;;5.75;90.01;97991.41;5025016;28;20072;-65
2021/04/03 06:49:17;;;;;;;1999.90;999.90;;;;;;;5.55;91.12;97993.41;5025114;28;20064;-65
2021/04/03 06:51:44;;;;;;;1999.90;999.90;;;;;;;5.45;92.41;97996.31;5022704;28;20064;-65
2021/04/03 06:54:12;;;;;;;1999.90;999.90;;;;;;;5.39;92.58;97997.50;5023431;28;20516;-65
2021/04/03 06:56:38;;;;;;;1999.90;999.90;;;;;;;6.02;90.45;98003.53;5020762;28;20049;-65
2021/04/03 06:59:10;;;;;;;1999.90;999.90;;;;;;;5.50;90.97;98001.69;5022705;28;20096;-65
2021/04/03 07:01:36;;;;;;;;;;;;;;;6.15;91.46;98000.00;5025910;28;20042;-65
2021/04/03 07:04:12;;;;;;;1999.90;999.90;;;;;;;6.57;88.75;98006.25;5022439;28;20418;-65
2021/04/03 07:06:38;;;;;;;1999.90;999.90;;;;;;;5.81;89.04;98001.97;5023652;28;20057;-65
2021/04/03 07:09:05;;;;;;;1999.90;999.90;;;;;;;5.43;92.26;98006.75;5020492;28;20057;-66
2021/04/03 07:11:32;;;;;;;1999.90;999.90;;;;;;;5.72;91.81;98008.47;5025089;28;20091;-63
2021/04/03 07:14:00;;;;;;;1999.90;999.90;;;;;;;5.79;91.06;98008.84;5024689;28;20054;-65
2021/04/03 07:16:27;;;;;;;1999.90;999.90;;;;;;;6.02;90.54;98007.09;5017475;28;20057;-63
2021/04/03 07:18:57;;;;;;;1999.90;999.90;;;;;;;5.90;89.13;98009.50;5019361;28;20072;-63
2021/04/03 07:21:23;;;;;;;1999.90;999.90;;;;;;;5.80;90.10;98007.75;5017496;28;20516;-64
2021/04/03 07:23:51;;;;;;;1999.90;999.90;;;;;;;6.24;88.80;98011.88;5023271;28;20053;-64
2021/04/03 07:26:18;;;;;;;1999.90;999.90;;;;;;;6.30;88.14;98007.91;5018583;28;20049;-64
2021/04/03 07:28:44;;;;;;;1999.90;999.90;;;;;;;5.49;90.78;98013.78;5021639;28;20049;-65
2021/04/03 07:31:36;;;;;;;1999.90;999.90;;;;;;;5.46;90.38;98014.38;5024265;28;20061;-64
2021/04/03 07:34:02;;;;;;;1999.90;999.90;;;;;;;5.19;91.19;98026.88;5021562;28;20088;-64
2021/04/03 07:36:41;;;;;;;1999.90;999.90;;;;;;;4.09;94.73;98033.25;5019648;28;20054;-64
2021/04/03 07:39:44;;;;;;;1999.90;999.90;;;;;;;4.53;95.37;98040.41;5026652;28;20115;-65
2021/04/03 07:42:32;;;;;;;1999.90;999.90;;;;;;;4.31;95.51;98045.63;5022316;28;20049;-64
2021/04/03 07:44:58;;;;;;;1999.90;999.90;;;;;;;4.09;95.87;98046.94;5017918;28;20053;-64
2021/04/03 07:47:24;;;;;;;1999.90;999.90;;;;;;;4.17;96.21;98054.53;5023367;28;20045;-64
2021/04/03 07:49:51;;;;;;;1999.90;999.90;;;;;;;4.14;96.80;98057.03;5021272;28;20582;-64
2021/04/03 07:52:37;;;;;;;1999.90;999.90;;;;;;;4.19;97.31;98057.78;5024458;28;20057;-64
2021/04/03 07:55:34;;;;;;;1999.90;999.90;;;;;;;4.47;95.15;98057.22;5017874;28;20100;-64
2021/04/03 07:58:18;;;;;;;1999.90;999.90;;;;;;;4.87;93.50;98066.00;5014540;28;20074;-65
2021/04/03 08:00:48;;;;;;;1999.90;999.90;;;;;;;4.85;92.93;98071.75;5017757;28;20587;-64
2021/04/03 08:03:26;;;;;;;1999.90;999.90;;;;;;;4.18;95.81;98071.75;5018001;28;20119;-64
2021/04/03 08:06:09;;;;;;;1999.90;999.90;;;;;;;4.07;96.21;98076.53;5019219;28;20046;-65
2021/04/03 08:08:41;;;;;;;1999.90;999.90;;;;;;;4.29;95.34;98078.75;5022293;28;20082;-64
2021/04/03 08:11:18;;;;;;;1999.90;999.90;;;;;;;4.59;95.41;98061.13;5019430;28;20394;-65
2021/04/03 08:13:50;;;;;;;1999.90;999.90;;;;;;;4.53;95.00;98078.75;5018051;28;20045;-64
2021/04/03 08:16:17;;;;;;;1999.90;999.90;;;;;;;4.11;96.97;98083.06;5023207;28;20428;-64
2021/04/03 08:18:46;;;;;;;1999.90;999.90;;;;;;;4.47;96.08;98085.41;5022229;28;20041;-64
2021/04/03 08:21:13;;;;;;;1999.90;999.90;;;;;;;4.64;96.63;98078.63;5018269;28;20042;-64
2021/04/03 08:23:48;;;;;;;1999.90;999.90;;;;;;;4.92;94.70;98085.91;5020107;28;20057;-64
2021/04/03 08:26:15;;;;;;;1999.90;999.90;;;;;;;5.00;93.91;98091.84;5020071;28;20053;-64
2021/04/03 08:28:42;;;;;;;1999.90;999.90;;;;;;;5.23;93.33;98085.47;5030675;28;20455;-64
2021/04/03 08:31:15;;;;;;;1999.90;999.90;;;;;;;4.79;94.11;98091.31;5015937;28;20058;-64
2021/04/03 08:33:43;;;;;;;1999.90;999.90;;;;;;;5.18;93.88;98088.31;5015311;28;20350;-64
2021/04/03 08:36:11;;;;;;;1999.90;999.90;;;;;;;5.67;93.53;98094.38;5014406;28;20054;-64
2021/04/03 08:38:38;;;;;;;1999.90;999.90;;;;;;;5.97;91.79;98093.09;5017590;28;20108;-64
2021/04/03 08:41:04;;;;;;;1999.90;999.90;;;;;;;5.32;92.08;98104.81;5021025;28;20057;-64
2021/04/03 08:43:31;;;;;;;1999.90;999.90;;;;;;;5.08;95.08;98096.69;5046801;28;20451;-64
2021/04/03 08:46:09;;;;;;;1999.90;999.90;;;;;;;5.52;93.78;98094.66;5016854;28;20049;-64
2021/04/03 08:48:37;;;;;;;1999.90;999.90;;;;;;;5.65;94.18;98102.91;5016338;28;20048;-64
2021/04/03 08:51:05;;;;;;;1999.90;999.90;;;;;;;5.73;92.67;98097.88;5013288;28;20056;-64
2021/04/03 08:53:40;;;;;;;1999.90;999.90;;;;;;;5.94;93.21;98106.56;5012506;28;21396;-64
2021/04/03 08:56:08;;;;;;;1999.90;999.90;;;;;;;6.13;90.74;98101.03;5022557;28;20057;-64
2021/04/03 08:58:35;;;;;;;1999.90;999.90;;;;;;;6.40;89.56;98113.19;5007992;28;20045;-64
2021/04/03 09:01:03;;;;;;;1999.90;999.90;;;;;;;6.42;88.86;98119.22;5015530;28;20049;-64
2021/04/03 09:03:30;;;;;;;1999.90;999.90;;;;;;;5.40;90.57;98119.78;5025720;28;20132;-64
2021/04/03 09:05:57;;;;;;;1999.90;999.90;;;;;;;5.67;91.18;98118.28;5016319;28;20049;-64
2021/04/03 09:08:24;;;;;;;1999.90;999.90;;;;;;;5.42;92.03;98126.59;5018473;28;20103;-63
2021/04/03 09:10:59;;;;;;;1999.90;999.90;;;;;;;5.76;91.96;98122.78;5014502;28;20050;-63
2021/04/03 09:13:36;;;;;;;1999.90;999.90;;;;;;;5.96;90.60;98118.06;5022249;28;20499;-64
2021/04/03 09:16:09;;;;;;;1999.90;999.90;;;;;;;6.39;89.44;98114.31;5013840;28;20060;-64
2021/04/03 09:18:36;;;;;;;1999.90;999.90;;;;;;;6.13;89.13;98128.50;5018724;28;20052;-64
2021/04/03 09:21:02;;;;;;;1999.90;999.90;;;;;;;5.54;91.68;98128.91;5015150;28;20052;-64
2021/04/03 09:23:28;;;;;;;1999.90;999.90;;;;;;;6.03;91.91;98123.19;5015665;28;20049;-64
2021/04/03 09:26:03;;;;;;;1999.90;999.90;;;;;;;6.15;90.92;98123.53;5009749;28;20053;-64
2021/04/03 09:28:40;;;;;;;1999.90;999.90;;;;;;;5.97;93.13;98120.53;5010095;28;20135;-64
2021/04/03 09:31:08;;;;;;;1999.90;999.90;;;;;;;6.52;89.35;98121.75;5009763;28;20895;-64
2021/04/03 09:33:46;;;;;;;1999.90;999.90;;;;;;;6.51;89.18;98123.66;5013706;28;20045;-64
2021/04/03 09:36:18;;;;;;;1999.90;999.90;;;;;;;6.68;88.88;98123.09;5022240;28;20065;-64
2021/04/03 09:38:45;;;;;;;1999.90;999.90;;;;;;;6.85;88.77;98116.94;5020953;28;20045;-64
2021/04/03 09:41:25;;;;;;;1999.90;999.90;;;;;;;7.13;89.39;98110.59;5015198;28;20065;-64
2021/04/03 09:43:53;;;;;;;1999.90;999.90;;;;;;;7.92;85.12;98109.31;5017397;28;20451;-64
2021/04/03 09:46:20;;;;;;;1999.90;999.90;;;;;;;7.47;86.66;98109.28;5016544;28;20053;-64
2021/04/03 09:48:47;;;;;;;1999.90;999.90;;;;;;;8.35;84.92;98107.91;5013643;28;20583;-64
2021/04/03 09:51:13;;;;;;;1999.90;999.90;;;;;;;8.20;78.79;98109.13;5013742;28;20053;-64
2021/04/03 09:53:40;;;;;;;1999.90;999.90;;;;;;;7.88;82.86;98114.63;5016464;28;20449;-64
2021/04/03 09:56:06;;;;;;;1999.90;999.90;;;;;;;7.06;79.10;98133.03;5017903;28;20103;-64
2021/04/03 09:58:32;;;;;;;1999.90;999.90;;;;;;;5.59;80.43;98158.97;5018271;28;20116;-64
2021/04/03 10:00:59;;;;;;;1999.90;999.90;;;;;;;5.02;84.08;98161.69;5012426;28;20077;-65
2021/04/03 10:03:25;;;;;;;1999.90;999.90;;;;;;;5.73;81.80;98150.84;5016145;28;20045;-65
2021/04/03 10:05:51;;;;;;;1999.90;999.90;;;;;;;5.29;83.70;98154.78;5013059;28;20103;-65
2021/04/03 10:08:17;;;;;;;1999.90;999.90;;;;;;;5.28;85.23;98153.13;5018343;28;20080;-64
2021/04/03 10:10:43;;;;;;;1999.90;999.90;;;;;;;4.86;86.63;98163.81;5027625;28;20527;-64
2021/04/03 10:13:09;;;;;;;1999.90;999.90;;;;;;;4.36;90.48;98172.31;5016614;28;20064;-65
2021/04/03 10:15:36;;;;;;;1999.90;999.90;;;;;;;3.15;93.58;98198.38;5014738;28;20497;-65
2021/04/03 10:18:03;;;;;;;1999.90;999.90;;;;;;;3.53;93.25;98202.25;5013455;28;20568;-64
2021/04/03 10:20:29;;;;;;;1999.90;999.90;;;;;;;3.44;92.90;98197.66;5017285;28;20312;-65
2021/04/03 10:22:55;;;;;;;1999.90;999.90;;;;;;;3.79;91.61;98212.22;5022905;28;20064;-68
2021/04/03 10:25:21;;;;;;;1999.90;999.90;;;;;;;3.29;92.38;98210.31;5018096;28;20052;-67
2021/04/03 10:27:48;;;;;;;1999.90;999.90;;;;;;;3.14;92.79;98213.94;5020659;28;20050;-67
2021/04/03 10:30:14;;;;;;;1999.90;999.90;;;;;;;3.11;93.74;98210.94;5016622;28;20115;-67
2021/04/03 10:32:40;;;;;;;1999.90;999.90;;;;;;;3.29;94.20;98202.13;5016112;28;20060;-67
2021/04/03 10:35:07;;;;;;;1999.90;999.90;;;;;;;3.92;93.86;98205.28;5020033;28;20060;-67
2021/04/03 10:37:33;;;;;;;1999.90;999.90;;;;;;;3.20;96.05;98208.44;5016103;28;20056;-67
2021/04/03 10:40:00;;;;;;;1999.90;999.90;;;;;;;3.85;96.53;98200.94;5016941;28;20076;-67
2021/04/03 10:42:26;;;;;;;1999.90;999.90;;;;;;;3.96;95.54;98203.59;5015033;28;20076;-68
2021/04/03 10:44:52;;;;;;;1999.90;999.90;;;;;;;4.01;96.36;98203.56;5019055;28;20058;-67
2021/04/03 10:47:18;;;;;;;1999.90;999.90;;;;;;;3.92;97.00;98197.06;5017113;28;20065;-67
2021/04/03 10:49:44;;;;;;;1999.90;999.90;;;;;;;4.36;96.72;98207.06;5016407;28;20049;-66
2021/04/03 10:52:10;;;;;;;1999.90;999.90;;;;;;;5.09;97.36;98205.19;5021663;28;20058;-65
2021/04/03 10:54:36;;;;;;;1999.90;999.90;;;;;;;5.93;95.33;98201.00;5016281;28;20757;-65
2021/04/03 10:57:03;;;;;;;1999.90;999.90;;;;;;;5.86;92.80;98200.56;5021330;28;20112;-64
2021/04/03 10:59:29;;;;;;;1999.90;999.90;;;;;;;5.90;92.35;98199.66;5013880;28;20061;-64
2021/04/03 11:01:55;;;;;;;1999.90;999.90;;;;;;;6.20;93.95;98199.50;5018289;28;20053;-64
2021/04/03 11:04:21;;;;;;;1999.90;999.90;;;;;;;7.09;91.91;98194.84;5016346;28;20107;-64
2021/04/03 11:06:47;;;;;;;1999.90;999.90;;;;;;;7.15;89.75;98196.38;5017761;28;20107;-64
2021/04/03 11:09:13;;;;;;;1999.90;999.90;;;;;;;6.74;89.85;98197.16;5020633;28;20046;-64
2021/04/03 11:11:39;;;;;;;1999.90;999.90;;;;;;;6.85;88.93;98193.91;5017935;28;20057;-65